Time,TemperatureF,DewpointF,PressureIn,WindDirection,WindDirectionDegrees,WindSpeedMPH,WindSpeedGustMPH,Humidity,HourlyPrecipIn,Conditions,Clouds,dailyrainin,SoftwareType,DateUTC
2013-06-30 00:01:00,72.4,67.0,29.71,NNW,333,0.0,1.0,84,0.00,,,0.00,weatherlink.com 1.10,2013-06-30 04:01:00,
2013-06-30 00:16:00,72.0,67.0,29.72,NNW,333,0.0,0.0,84,0.00,,,0.00,weatherlink.com 1.10,2013-06-30 04:16:00,
2013-06-30 00:31:00,71.6,67.0,29.72,NNW,333,0.0,1.0,85,0.00,,,0.00,weatherlink.com 1.10,2013-06-30 04:31:00,
2013-06-30 00:46:00,71.3,67.0,29.71,NNE,25,0.0,0.0,86,0.00,,,0.00,weatherlink.com 1.10,2013-06-30 04:46:00,
2013-06-30 01:01:00,71.1,67.0,29.71,NNE,25,0.0,1.0,86,0.00,,,0.00,weatherlink.com 1.10,2013-06-30 05:01:00,
2013-06-30 01:16:00,71.1,67.0,29.71,NE,55,0.0,3.0,87,0.00,,,0.00,weatherlink.com 1.10,2013-06-30 05:16:00,
2013-06-30 01:31:00,71.2,67.0,29.71,NE,55,0.0,0.0,87,0.00,,,0.00,weatherlink.com 1.10,2013-06-30 05:31:00,
2013-06-30 01:46:00,71.2,67.0,29.71,NE,55,0.0,0.0,87,0.00,,,0.00,weatherlink.com 1.10,2013-06-30 05:46:00,
2013-06-30 02:01:00,71.1,67.0,29.71,NE,55,0.0,0.0,87,0.00,,,0.00,weatherlink.com 1.10,2013-06-30 06:01:00,
2013-06-30 02:16:00,71.1,67.0,29.71,NE,55,0.0,0.0,87,0.00,,,0.00,weatherlink.com 1.10,2013-06-30 06:16:00,
2013-06-30 02:31:00,71.2,68.0,29.71,NE,51,0.0,1.0,88,0.00,,,0.00,weatherlink.com 1.10,2013-06-30 06:31:00,
2013-06-30 02:46:00,71.1,67.0,29.71,ENE,71,0.0,4.0,87,0.00,,,0.00,weatherlink.com 1.10,2013-06-30 06:46:00,
2013-06-30 03:02:00,70.9,67.0,29.71,NE,34,0.0,1.0,88,0.00,,,0.00,weatherlink.com 1.10,2013-06-30 07:02:00,
2013-06-30 03:17:00,70.7,67.0,29.71,NE,43,0.0,1.0,88,0.00,,,0.00,weatherlink.com 1.10,2013-06-30 07:17:00,
2013-06-30 03:32:00,70.4,67.0,29.70,NE,43,0.0,0.0,88,0.00,,,0.00,weatherlink.com 1.10,2013-06-30 07:32:00,
2013-06-30 03:47:00,70.4,67.0,29.70,East,83,0.0,4.0,89,0.00,,,0.00,weatherlink.com 1.10,2013-06-30 07:47:00,
2013-06-30 04:02:00,70.2,67.0,29.70,East,88,0.0,0.0,89,0.00,,,0.00,weatherlink.com 1.10,2013-06-30 08:02:00,
2013-06-30 04:17:00,70.0,67.0,29.69,East,88,0.0,0.0,89,0.00,,,0.00,weatherlink.com 1.10,2013-06-30 08:17:00,
2013-06-30 04:32:00,69.7,67.0,29.70,East,88,0.0,0.0,90,0.00,,,0.00,weatherlink.com 1.10,2013-06-30 08:32:00,
2013-06-30 04:47:00,69.7,67.0,29.70,NE,56,0.0,2.0,90,0.00,,,0.00,weatherlink.com 1.10,2013-06-30 08:47:00,
2013-06-30 05:02:00,69.7,67.0,29.70,NNW,333,0.0,0.0,90,0.00,,,0.00,weatherlink.com 1.10,2013-06-30 09:02:00,
2013-06-30 05:17:00,69.7,67.0,29.71,NNW,333,0.0,0.0,90,0.00,,,0.00,weatherlink.com 1.10,2013-06-30 09:17:00,
2013-06-30 05:32:00,69.7,67.0,29.71,NNW,333,0.0,0.0,90,0.00,,,0.00,weatherlink.com 1.10,2013-06-30 09:32:00,
2013-06-30 05:47:00,69.7,67.0,29.72,NNW,333,0.0,0.0,90,0.00,,,0.00,weatherlink.com 1.10,2013-06-30 09:47:00,
2013-06-30 06:02:00,69.5,67.0,29.72,NNW,333,0.0,0.0,90,0.00,,,0.00,weatherlink.com 1.10,2013-06-30 10:02:00,
2013-06-30 06:17:00,69.5,67.0,29.73,NNW,333,0.0,0.0,91,0.00,,,0.00,weatherlink.com 1.10,2013-06-30 10:17:00,
2013-06-30 06:32:00,69.5,67.0,29.73,NNW,333,0.0,1.0,91,0.00,,,0.00,weatherlink.com 1.10,2013-06-30 10:32:00,
2013-06-30 06:47:00,69.5,67.0,29.73,NNW,333,0.0,0.0,91,0.00,,,0.00,weatherlink.com 1.10,2013-06-30 10:47:00,
2013-06-30 07:02:00,69.6,67.0,29.74,NNW,333,0.0,0.0,91,0.00,,,0.00,weatherlink.com 1.10,2013-06-30 11:02:00,
2013-06-30 07:17:00,69.7,67.0,29.74,NNW,333,0.0,0.0,91,0.00,,,0.00,weatherlink.com 1.10,2013-06-30 11:17:00,
2013-06-30 07:32:00,69.9,67.0,29.74,NNW,333,0.0,1.0,91,0.00,,,0.00,weatherlink.com 1.10,2013-06-30 11:32:00,
2013-06-30 07:47:00,70.3,68.0,29.75,NNW,333,0.0,1.0,91,0.00,,,0.00,weatherlink.com 1.10,2013-06-30 11:47:00,
2013-06-30 08:02:00,70.8,68.0,29.75,NNE,18,0.0,1.0,90,0.00,,,0.00,weatherlink.com 1.10,2013-06-30 12:02:00,
2013-06-30 08:17:00,71.3,68.0,29.76,NNE,18,0.0,0.0,89,0.00,,,0.00,weatherlink.com 1.10,2013-06-30 12:17:00,
2013-06-30 08:32:00,71.9,68.0,29.76,ENE,76,0.0,3.0,88,0.00,,,0.00,weatherlink.com 1.10,2013-06-30 12:32:00,
2013-06-30 08:47:00,72.9,69.0,29.76,ENE,74,1.0,3.0,86,0.00,,,0.00,weatherlink.com 1.10,2013-06-30 12:47:00,
2013-06-30 09:02:00,73.2,69.0,29.77,East,86,0.0,2.0,85,0.00,,,0.00,weatherlink.com 1.10,2013-06-30 13:02:00,
2013-06-30 09:17:00,74.2,69.0,29.77,ENE,63,0.0,2.0,84,0.00,,,0.00,weatherlink.com 1.10,2013-06-30 13:17:00,
2013-06-30 09:32:00,74.8,69.0,29.77,East,79,0.0,1.0,83,0.00,,,0.00,weatherlink.com 1.10,2013-06-30 13:32:00,
2013-06-30 09:47:00,75.7,70.0,29.76,East,79,0.0,1.0,82,0.00,,,0.00,weatherlink.com 1.10,2013-06-30 13:47:00,
2013-06-30 10:02:00,76.8,70.0,29.77,East,83,0.0,4.0,79,0.00,,,0.00,weatherlink.com 1.10,2013-06-30 14:02:00,
2013-06-30 10:17:00,77.3,70.0,29.77,West,273,1.0,3.0,79,0.00,,,0.00,weatherlink.com 1.10,2013-06-30 14:17:00,
2013-06-30 10:32:00,77.5,71.0,29.77,ENE,64,0.0,2.0,79,0.00,,,0.00,weatherlink.com 1.10,2013-06-30 14:32:00,
2013-06-30 10:47:00,78.3,71.0,29.77,East,85,0.0,2.0,78,0.00,,,0.00,weatherlink.com 1.10,2013-06-30 14:47:00,
2013-06-30 11:02:00,78.7,71.0,29.77,East,98,0.0,2.0,76,0.00,,,0.00,weatherlink.com 1.10,2013-06-30 15:02:00,
2013-06-30 11:17:00,79.8,71.0,29.77,East,98,0.0,0.0,75,0.00,,,0.00,weatherlink.com 1.10,2013-06-30 15:17:00,
2013-06-30 11:33:00,80.3,71.0,29.77,South,171,0.0,2.0,72,0.00,,,0.00,weatherlink.com 1.10,2013-06-30 15:33:00,
2013-06-30 11:47:00,80.8,71.0,29.77,NE,41,0.0,2.0,72,0.00,,,0.00,weatherlink.com 1.10,2013-06-30 15:47:00,
2013-06-30 12:02:00,81.5,71.0,29.77,SW,223,0.0,2.0,71,0.00,,,0.00,weatherlink.com 1.10,2013-06-30 16:02:00,
2013-06-30 12:19:00,82.3,71.0,29.77,SE,131,0.0,2.0,68,0.00,,,0.00,weatherlink.com 1.10,2013-06-30 16:19:00,
2013-06-30 12:33:00,81.8,71.0,29.77,NE,46,0.0,2.0,70,0.00,,,0.00,weatherlink.com 1.10,2013-06-30 16:33:00,
2013-06-30 12:48:00,82.1,72.0,29.77,NE,44,0.0,1.0,71,0.00,,,0.00,weatherlink.com 1.10,2013-06-30 16:48:00,
2013-06-30 13:03:00,82.0,70.0,29.77,West,274,0.0,3.0,68,0.00,,,0.00,weatherlink.com 1.10,2013-06-30 17:03:00,
2013-06-30 13:18:00,82.1,72.0,29.76,WNW,292,0.0,0.0,72,0.00,,,0.00,weatherlink.com 1.10,2013-06-30 17:18:00,
2013-06-30 13:33:00,82.0,73.0,29.76,WNW,292,0.0,1.0,73,0.00,,,0.00,weatherlink.com 1.10,2013-06-30 17:33:00,
2013-06-30 13:48:00,82.7,72.0,29.75,ESE,117,0.0,2.0,69,0.00,,,0.00,weatherlink.com 1.10,2013-06-30 17:48:00,
2013-06-30 14:03:00,82.4,69.0,29.75,ENE,73,0.0,3.0,65,0.00,,,0.00,weatherlink.com 1.10,2013-06-30 18:03:00,
2013-06-30 14:18:00,82.4,68.0,29.75,East,81,0.0,4.0,61,0.00,,,0.00,weatherlink.com 1.10,2013-06-30 18:18:00,
2013-06-30 14:33:00,83.8,70.0,29.74,ENE,67,0.0,6.0,64,0.00,,,0.00,weatherlink.com 1.10,2013-06-30 18:33:00,
2013-06-30 14:48:00,83.8,71.0,29.74,SSW,213,0.0,3.0,65,0.00,,,0.00,weatherlink.com 1.10,2013-06-30 18:48:00,
2013-06-30 15:03:00,84.8,71.0,29.74,NNW,346,0.0,4.0,63,0.00,,,0.00,weatherlink.com 1.10,2013-06-30 19:03:00,
2013-06-30 15:18:00,84.2,69.0,29.74,West,269,0.0,3.0,61,0.00,,,0.00,weatherlink.com 1.10,2013-06-30 19:18:00,
2013-06-30 15:33:00,85.7,70.0,29.73,West,272,0.0,2.0,60,0.00,,,0.00,weatherlink.com 1.10,2013-06-30 19:33:00,
2013-06-30 15:48:00,85.7,72.0,29.74,East,92,0.0,5.0,63,0.00,,,0.00,weatherlink.com 1.10,2013-06-30 19:48:00,
2013-06-30 16:03:00,85.2,69.0,29.73,East,90,0.0,4.0,58,0.00,,,0.00,weatherlink.com 1.10,2013-06-30 20:03:00,
2013-06-30 16:18:00,86.1,69.0,29.73,North,5,0.0,3.0,56,0.00,,,0.00,weatherlink.com 1.10,2013-06-30 20:18:00,
2013-06-30 16:33:00,86.8,69.0,29.72,East,87,0.0,3.0,56,0.00,,,0.00,weatherlink.com 1.10,2013-06-30 20:33:00,
2013-06-30 16:48:00,85.9,70.0,29.72,SSE,149,0.0,1.0,59,0.00,,,0.00,weatherlink.com 1.10,2013-06-30 20:48:00,
2013-06-30 17:03:00,84.6,72.0,29.73,SE,145,0.0,2.0,66,0.00,,,0.00,weatherlink.com 1.10,2013-06-30 21:03:00,
2013-06-30 17:18:00,83.5,71.0,29.73,East,94,0.0,2.0,67,0.00,,,0.00,weatherlink.com 1.10,2013-06-30 21:18:00,
2013-06-30 17:33:00,82.6,71.0,29.74,East,99,0.0,4.0,68,0.00,,,0.00,weatherlink.com 1.10,2013-06-30 21:33:00,
2013-06-30 17:48:00,81.9,72.0,29.74,East,84,2.0,2.0,72,0.00,,,0.00,weatherlink.com 1.10,2013-06-30 21:48:00,
2013-06-30 18:03:00,80.9,71.0,29.74,ESE,107,0.0,4.0,72,0.00,,,0.00,weatherlink.com 1.10,2013-06-30 22:03:00,
2013-06-30 18:18:00,79.9,71.0,29.75,ENE,63,3.0,5.0,74,0.00,,,0.00,weatherlink.com 1.10,2013-06-30 22:18:00,
2013-06-30 18:33:00,78.6,69.0,29.76,ESE,118,0.0,9.0,73,0.00,,,0.00,weatherlink.com 1.10,2013-06-30 22:33:00,
2013-06-30 18:48:00,76.9,68.0,29.77,ENE,60,2.0,11.0,73,0.00,,,0.00,weatherlink.com 1.10,2013-06-30 22:48:00,
2013-06-30 19:03:00,75.6,67.0,29.77,ESE,103,2.0,8.0,75,0.00,,,0.00,weatherlink.com 1.10,2013-06-30 23:03:00,
2013-06-30 19:18:00,74.3,67.0,29.78,East,96,1.0,9.0,78,0.00,,,0.00,weatherlink.com 1.10,2013-06-30 23:18:00,
2013-06-30 19:33:00,73.1,67.0,29.79,ENE,65,2.0,3.0,82,0.00,,,0.00,weatherlink.com 1.10,2013-06-30 23:33:00,
2013-06-30 19:48:00,72.2,67.0,29.80,ENE,77,0.0,6.0,83,0.00,,,0.00,weatherlink.com 1.10,2013-06-30 23:48:00,
2013-06-30 20:03:00,71.3,67.0,29.80,East,101,2.0,6.0,85,0.01,,,0.01,weatherlink.com 1.10,2013-07-01 00:03:00,
2013-06-30 20:18:00,70.3,66.0,29.80,ESE,109,0.0,7.0,87,0.02,,,0.02,weatherlink.com 1.10,2013-07-01 00:18:00,
2013-06-30 20:33:00,69.7,66.0,29.79,ENE,64,2.0,5.0,88,0.02,,,0.02,weatherlink.com 1.10,2013-07-01 00:33:00,
2013-06-30 20:48:00,69.3,66.0,29.79,SE,132,0.0,6.0,89,0.02,,,0.02,weatherlink.com 1.10,2013-07-01 00:48:00,
2013-06-30 21:03:00,69.1,66.0,29.80,East,94,0.0,2.0,90,0.01,,,0.02,weatherlink.com 1.10,2013-07-01 01:03:00,
2013-06-30 21:18:00,69.0,66.0,29.81,North,355,0.0,1.0,90,0.00,,,0.02,weatherlink.com 1.10,2013-07-01 01:18:00,
2013-06-30 21:33:00,69.0,66.0,29.82,East,82,0.0,1.0,91,0.00,,,0.02,weatherlink.com 1.10,2013-07-01 01:33:00,
2013-06-30 21:48:00,69.0,66.0,29.82,East,97,0.0,3.0,91,0.00,,,0.02,weatherlink.com 1.10,2013-07-01 01:48:00,
2013-06-30 22:03:00,68.8,66.0,29.81,ENE,69,0.0,3.0,91,0.00,,,0.02,weatherlink.com 1.10,2013-07-01 02:03:00,
2013-06-30 22:18:00,68.6,66.0,29.82,ENE,59,0.0,4.0,91,0.00,,,0.02,weatherlink.com 1.10,2013-07-01 02:18:00,
2013-06-30 22:33:00,68.5,66.0,29.84,East,90,0.0,0.0,91,0.00,,,0.02,weatherlink.com 1.10,2013-07-01 02:33:00,
2013-06-30 22:48:00,68.5,66.0,29.84,East,90,0.0,0.0,91,0.00,,,0.02,weatherlink.com 1.10,2013-07-01 02:48:00,
2013-06-30 23:03:00,68.6,66.0,29.84,East,90,0.0,0.0,91,0.00,,,0.02,weatherlink.com 1.10,2013-07-01 03:03:00,
2013-06-30 23:18:00,68.4,66.0,29.84,East,90,0.0,0.0,91,0.00,,,0.02,weatherlink.com 1.10,2013-07-01 03:18:00,
2013-06-30 23:33:00,68.3,66.0,29.84,East,90,0.0,0.0,91,0.00,,,0.02,weatherlink.com 1.10,2013-07-01 03:33:00,
2013-06-30 23:48:00,68.3,66.0,29.84,East,90,0.0,0.0,92,0.00,,,0.02,weatherlink.com 1.10,2013-07-01 03:48:00,